sensor_id;sensor_type;location;lat;lon;timestamp;P1;durP1;ratioP1;P2;durP2;ratioP2
69596;SDS011;70000;51.176;-115.568;2023-06-19T00:01:41;4.50;;;1.70;;
69596;SDS011;70000;51.176;-115.568;2023-06-19T00:04:10;4.50;;;1.80;;
69596;SDS011;70000;51.176;-115.568;2023-06-19T00:06:40;4.50;;;1.30;;
69596;SDS011;70000;51.176;-115.568;2023-06-19T00:09:08;5.10;;;2.00;;
69596;SDS011;70000;51.176;-115.568;2023-06-19T00:11:37;6.00;;;2.80;;
69596;SDS011;70000;51.176;-115.568;2023-06-19T00:14:07;4.90;;;1.90;;
69596;SDS011;70000;51.176;-115.568;2023-06-19T00:16:35;5.10;;;1.70;;
69596;SDS011;70000;51.176;-115.568;2023-06-19T00:19:05;4.30;;;1.80;;
69596;SDS011;70000;51.176;-115.568;2023-06-19T00:21:33;4.50;;;1.60;;
69596;SDS011;70000;51.176;-115.568;2023-06-19T00:24:03;5.30;;;2.10;;
69596;SDS011;70000;51.176;-115.568;2023-06-19T00:26:33;4.60;;;1.70;;
69596;SDS011;70000;51.176;-115.568;2023-06-19T00:29:03;4.30;;;1.50;;
69596;SDS011;70000;51.176;-115.568;2023-06-19T00:31:32;4.30;;;1.30;;
69596;SDS011;70000;51.176;-115.568;2023-06-19T00:34:05;5.40;;;1.50;;
69596;SDS011;70000;51.176;-115.568;2023-06-19T00:36:34;6.20;;;1.90;;
69596;SDS011;70000;51.176;-115.568;2023-06-19T00:39:09;5.00;;;1.50;;
69596;SDS011;70000;51.176;-115.568;2023-06-19T00:41:39;4.90;;;1.60;;
69596;SDS011;70000;51.176;-115.568;2023-06-19T00:44:11;6.00;;;1.70;;
69596;SDS011;70000;51.176;-115.568;2023-06-19T00:46:40;4.60;;;1.50;;
69596;SDS011;70000;51.176;-115.568;2023-06-19T00:49:10;4.20;;;1.40;;
69596;SDS011;70000;51.176;-115.568;2023-06-19T00:51:40;4.60;;;1.70;;
69596;SDS011;70000;51.176;-115.568;2023-06-19T00:54:09;4.90;;;1.80;;
69596;SDS011;70000;51.176;-115.568;2023-06-19T00:56:38;4.50;;;1.50;;
69596;SDS011;70000;51.176;-115.568;2023-06-19T00:59:17;5.00;;;2.10;;
69596;SDS011;70000;51.176;-115.568;2023-06-19T01:01:47;5.00;;;2.10;;
69596;SDS011;70000;51.176;-115.568;2023-06-19T01:04:17;4.70;;;1.60;;
69596;SDS011;70000;51.176;-115.568;2023-06-19T01:09:45;4.80;;;1.60;;
69596;SDS011;70000;51.176;-115.568;2023-06-19T01:12:29;6.20;;;2.40;;
69596;SDS011;70000;51.176;-115.568;2023-06-19T01:15:04;5.00;;;2.00;;
69596;SDS011;70000;51.176;-115.568;2023-06-19T01:17:36;4.80;;;1.70;;
69596;SDS011;70000;51.176;-115.568;2023-06-19T01:20:07;5.60;;;2.30;;
69596;SDS011;70000;51.176;-115.568;2023-06-19T01:22:39;5.70;;;2.20;;
69596;SDS011;70000;51.176;-115.568;2023-06-19T01:25:11;5.00;;;1.70;;
69596;SDS011;70000;51.176;-115.568;2023-06-19T01:27:43;5.30;;;2.20;;
69596;SDS011;70000;51.176;-115.568;2023-06-19T01:30:12;5.20;;;1.90;;
69596;SDS011;70000;51.176;-115.568;2023-06-19T01:32:50;5.20;;;1.90;;
69596;SDS011;70000;51.176;-115.568;2023-06-19T01:35:33;4.90;;;2.00;;
69596;SDS011;70000;51.176;-115.568;2023-06-19T01:38:06;5.10;;;2.10;;
69596;SDS011;70000;51.176;-115.568;2023-06-19T01:40:37;5.20;;;2.30;;
69596;SDS011;70000;51.176;-115.568;2023-06-19T01:43:07;5.60;;;2.70;;
69596;SDS011;70000;51.176;-115.568;2023-06-19T01:45:40;6.20;;;2.40;;
69596;SDS011;70000;51.176;-115.568;2023-06-19T01:48:09;6.00;;;2.30;;
69596;SDS011;70000;51.176;-115.568;2023-06-19T01:50:38;5.20;;;2.40;;
69596;SDS011;70000;51.176;-115.568;2023-06-19T01:53:08;5.70;;;2.10;;
69596;SDS011;70000;51.176;-115.568;2023-06-19T01:55:46;6.60;;;2.90;;
69596;SDS011;70000;51.176;-115.568;2023-06-19T01:58:15;5.30;;;2.00;;
69596;SDS011;70000;51.176;-115.568;2023-06-19T02:00:44;5.90;;;2.90;;
69596;SDS011;70000;51.176;-115.568;2023-06-19T02:03:13;5.00;;;2.00;;
69596;SDS011;70000;51.176;-115.568;2023-06-19T02:05:42;4.90;;;2.10;;
69596;SDS011;70000;51.176;-115.568;2023-06-19T02:08:11;4.70;;;1.60;;
69596;SDS011;70000;51.176;-115.568;2023-06-19T02:10:40;4.60;;;1.70;;
69596;SDS011;70000;51.176;-115.568;2023-06-19T02:13:09;7.80;;;4.40;;
69596;SDS011;70000;51.176;-115.568;2023-06-19T02:15:38;7.30;;;3.60;;
69596;SDS011;70000;51.176;-115.568;2023-06-19T02:18:08;5.60;;;2.60;;
69596;SDS011;70000;51.176;-115.568;2023-06-19T02:20:37;5.70;;;2.70;;
69596;SDS011;70000;51.176;-115.568;2023-06-19T02:23:07;4.80;;;1.80;;
69596;SDS011;70000;51.176;-115.568;2023-06-19T02:25:35;4.60;;;1.40;;
69596;SDS011;70000;51.176;-115.568;2023-06-19T02:28:04;5.20;;;2.00;;
69596;SDS011;70000;51.176;-115.568;2023-06-19T02:30:33;5.80;;;2.30;;
69596;SDS011;70000;51.176;-115.568;2023-06-19T02:33:03;6.50;;;2.50;;
69596;SDS011;70000;51.176;-115.568;2023-06-19T02:35:33;5.40;;;2.00;;
69596;SDS011;70000;51.176;-115.568;2023-06-19T02:38:02;5.60;;;2.00;;
69596;SDS011;70000;51.176;-115.568;2023-06-19T02:40:32;5.60;;;2.30;;
69596;SDS011;70000;51.176;-115.568;2023-06-19T02:43:01;4.70;;;1.70;;
69596;SDS011;70000;51.176;-115.568;2023-06-19T02:45:30;5.50;;;1.90;;
69596;SDS011;70000;51.176;-115.568;2023-06-19T02:47:59;4.50;;;1.60;;
69596;SDS011;70000;51.176;-115.568;2023-06-19T02:50:28;5.10;;;1.80;;
69596;SDS011;70000;51.176;-115.568;2023-06-19T02:52:58;4.10;;;1.40;;
69596;SDS011;70000;51.176;-115.568;2023-06-19T02:55:30;4.70;;;1.80;;
69596;SDS011;70000;51.176;-115.568;2023-06-19T02:58:00;4.30;;;1.60;;
69596;SDS011;70000;51.176;-115.568;2023-06-19T03:00:29;5.70;;;2.30;;
69596;SDS011;70000;51.176;-115.568;2023-06-19T03:03:01;5.30;;;1.90;;
69596;SDS011;70000;51.176;-115.568;2023-06-19T03:05:30;5.70;;;2.30;;
69596;SDS011;70000;51.176;-115.568;2023-06-19T03:07:59;5.10;;;2.10;;
69596;SDS011;70000;51.176;-115.568;2023-06-19T03:10:28;5.00;;;2.00;;
69596;SDS011;70000;51.176;-115.568;2023-06-19T03:12:58;5.40;;;2.30;;
69596;SDS011;70000;51.176;-115.568;2023-06-19T03:15:27;5.30;;;1.90;;
69596;SDS011;70000;51.176;-115.568;2023-06-19T03:17:56;5.80;;;1.90;;
69596;SDS011;70000;51.176;-115.568;2023-06-19T03:20:25;5.40;;;2.10;;
69596;SDS011;70000;51.176;-115.568;2023-06-19T03:22:54;5.30;;;2.10;;
69596;SDS011;70000;51.176;-115.568;2023-06-19T03:25:23;5.60;;;2.10;;
69596;SDS011;70000;51.176;-115.568;2023-06-19T03:27:52;5.10;;;2.20;;
69596;SDS011;70000;51.176;-115.568;2023-06-19T03:30:21;5.10;;;1.50;;
69596;SDS011;70000;51.176;-115.568;2023-06-19T03:32:51;5.10;;;1.90;;
69596;SDS011;70000;51.176;-115.568;2023-06-19T03:35:20;4.40;;;1.50;;
69596;SDS011;70000;51.176;-115.568;2023-06-19T03:37:49;4.40;;;1.40;;
69596;SDS011;70000;51.176;-115.568;2023-06-19T03:40:18;4.80;;;1.80;;
69596;SDS011;70000;51.176;-115.568;2023-06-19T03:42:47;4.10;;;1.60;;
69596;SDS011;70000;51.176;-115.568;2023-06-19T03:45:16;4.90;;;1.80;;
69596;SDS011;70000;51.176;-115.568;2023-06-19T03:47:45;4.20;;;1.50;;
69596;SDS011;70000;51.176;-115.568;2023-06-19T03:50:15;4.10;;;1.40;;
69596;SDS011;70000;51.176;-115.568;2023-06-19T03:52:57;3.90;;;1.40;;
69596;SDS011;70000;51.176;-115.568;2023-06-19T03:55:26;4.80;;;1.70;;
69596;SDS011;70000;51.176;-115.568;2023-06-19T03:57:58;4.60;;;1.60;;
69596;SDS011;70000;51.176;-115.568;2023-06-19T04:00:27;4.30;;;1.60;;
69596;SDS011;70000;51.176;-115.568;2023-06-19T04:02:56;4.80;;;1.60;;
69596;SDS011;70000;51.176;-115.568;2023-06-19T04:05:25;4.60;;;1.50;;
69596;SDS011;70000;51.176;-115.568;2023-06-19T04:07:55;4.10;;;1.40;;
69596;SDS011;70000;51.176;-115.568;2023-06-19T04:10:24;3.70;;;1.20;;
69596;SDS011;70000;51.176;-115.568;2023-06-19T04:12:53;4.30;;;1.60;;
69596;SDS011;70000;51.176;-115.568;2023-06-19T04:15:23;4.20;;;1.50;;
69596;SDS011;70000;51.176;-115.568;2023-06-19T04:17:52;4.20;;;1.40;;
69596;SDS011;70000;51.176;-115.568;2023-06-19T04:20:21;4.60;;;1.50;;
69596;SDS011;70000;51.176;-115.568;2023-06-19T04:22:51;4.20;;;1.40;;
69596;SDS011;70000;51.176;-115.568;2023-06-19T04:25:20;5.10;;;1.60;;
69596;SDS011;70000;51.176;-115.568;2023-06-19T04:27:49;3.80;;;1.30;;
69596;SDS011;70000;51.176;-115.568;2023-06-19T04:30:18;4.60;;;1.70;;
69596;SDS011;70000;51.176;-115.568;2023-06-19T04:32:49;4.00;;;1.30;;
69596;SDS011;70000;51.176;-115.568;2023-06-19T04:35:21;5.90;;;1.70;;
69596;SDS011;70000;51.176;-115.568;2023-06-19T04:37:52;4.50;;;1.50;;
69596;SDS011;70000;51.176;-115.568;2023-06-19T04:40:21;4.20;;;1.50;;
69596;SDS011;70000;51.176;-115.568;2023-06-19T04:42:52;5.10;;;1.60;;
69596;SDS011;70000;51.176;-115.568;2023-06-19T04:45:21;4.00;;;1.50;;
69596;SDS011;70000;51.176;-115.568;2023-06-19T04:47:51;5.20;;;1.60;;
69596;SDS011;70000;51.176;-115.568;2023-06-19T04:50:20;4.20;;;1.40;;
69596;SDS011;70000;51.176;-115.568;2023-06-19T04:52:51;3.50;;;1.10;;
69596;SDS011;70000;51.176;-115.568;2023-06-19T04:55:20;4.10;;;1.40;;
69596;SDS011;70000;51.176;-115.568;2023-06-19T04:57:49;4.10;;;1.30;;
69596;SDS011;70000;51.176;-115.568;2023-06-19T05:00:18;5.70;;;1.90;;
69596;SDS011;70000;51.176;-115.568;2023-06-19T05:02:50;4.20;;;1.60;;
69596;SDS011;70000;51.176;-115.568;2023-06-19T05:05:19;4.50;;;1.50;;
69596;SDS011;70000;51.176;-115.568;2023-06-19T05:07:50;4.20;;;1.50;;
69596;SDS011;70000;51.176;-115.568;2023-06-19T05:10:21;3.90;;;1.30;;
69596;SDS011;70000;51.176;-115.568;2023-06-19T05:12:50;5.10;;;1.80;;
69596;SDS011;70000;51.176;-115.568;2023-06-19T05:15:19;4.20;;;1.50;;
69596;SDS011;70000;51.176;-115.568;2023-06-19T05:17:48;4.40;;;1.50;;
69596;SDS011;70000;51.176;-115.568;2023-06-19T05:20:20;4.50;;;1.60;;
69596;SDS011;70000;51.176;-115.568;2023-06-19T05:22:49;4.60;;;1.60;;
69596;SDS011;70000;51.176;-115.568;2023-06-19T05:25:18;4.70;;;1.60;;
69596;SDS011;70000;51.176;-115.568;2023-06-19T05:27:47;4.70;;;1.80;;
69596;SDS011;70000;51.176;-115.568;2023-06-19T05:30:16;4.40;;;1.30;;
69596;SDS011;70000;51.176;-115.568;2023-06-19T05:32:45;4.70;;;1.80;;
69596;SDS011;70000;51.176;-115.568;2023-06-19T05:35:17;3.70;;;1.30;;
69596;SDS011;70000;51.176;-115.568;2023-06-19T05:37:47;4.40;;;1.60;;
69596;SDS011;70000;51.176;-115.568;2023-06-19T05:40:16;4.70;;;1.20;;
69596;SDS011;70000;51.176;-115.568;2023-06-19T05:42:45;3.70;;;1.40;;
69596;SDS011;70000;51.176;-115.568;2023-06-19T05:45:14;3.90;;;1.40;;
69596;SDS011;70000;51.176;-115.568;2023-06-19T05:47:43;4.70;;;1.40;;
69596;SDS011;70000;51.176;-115.568;2023-06-19T05:50:12;4.20;;;1.50;;
69596;SDS011;70000;51.176;-115.568;2023-06-19T05:52:42;4.20;;;1.60;;
69596;SDS011;70000;51.176;-115.568;2023-06-19T05:55:11;3.90;;;1.40;;
69596;SDS011;70000;51.176;-115.568;2023-06-19T05:57:40;4.00;;;1.40;;
69596;SDS011;70000;51.176;-115.568;2023-06-19T06:00:10;4.20;;;1.50;;
69596;SDS011;70000;51.176;-115.568;2023-06-19T06:02:42;4.40;;;1.60;;
69596;SDS011;70000;51.176;-115.568;2023-06-19T06:05:13;4.00;;;1.50;;
69596;SDS011;70000;51.176;-115.568;2023-06-19T06:07:42;4.50;;;1.40;;
69596;SDS011;70000;51.176;-115.568;2023-06-19T06:10:14;3.80;;;1.30;;
69596;SDS011;70000;51.176;-115.568;2023-06-19T06:12:45;3.90;;;1.40;;
69596;SDS011;70000;51.176;-115.568;2023-06-19T06:15:14;4.40;;;1.30;;
69596;SDS011;70000;51.176;-115.568;2023-06-19T06:17:44;4.20;;;1.40;;
69596;SDS011;70000;51.176;-115.568;2023-06-19T06:20:13;4.40;;;1.60;;
69596;SDS011;70000;51.176;-115.568;2023-06-19T06:22:42;3.90;;;1.40;;
69596;SDS011;70000;51.176;-115.568;2023-06-19T06:25:11;4.20;;;1.40;;
69596;SDS011;70000;51.176;-115.568;2023-06-19T06:27:44;4.20;;;1.50;;
69596;SDS011;70000;51.176;-115.568;2023-06-19T06:30:13;4.40;;;1.60;;
69596;SDS011;70000;51.176;-115.568;2023-06-19T06:32:46;3.60;;;1.20;;
69596;SDS011;70000;51.176;-115.568;2023-06-19T06:35:16;4.30;;;1.40;;
69596;SDS011;70000;51.176;-115.568;2023-06-19T06:37:47;3.80;;;1.40;;
69596;SDS011;70000;51.176;-115.568;2023-06-19T06:40:18;4.50;;;1.70;;
69596;SDS011;70000;51.176;-115.568;2023-06-19T06:42:52;4.50;;;1.70;;
69596;SDS011;70000;51.176;-115.568;2023-06-19T06:45:25;3.90;;;1.30;;
69596;SDS011;70000;51.176;-115.568;2023-06-19T06:47:54;3.90;;;1.30;;
69596;SDS011;70000;51.176;-115.568;2023-06-19T06:50:23;4.30;;;1.50;;
69596;SDS011;70000;51.176;-115.568;2023-06-19T06:52:52;4.20;;;1.40;;
69596;SDS011;70000;51.176;-115.568;2023-06-19T06:55:21;3.90;;;1.40;;
69596;SDS011;70000;51.176;-115.568;2023-06-19T06:57:50;3.80;;;1.30;;
69596;SDS011;70000;51.176;-115.568;2023-06-19T07:00:20;4.00;;;1.30;;
69596;SDS011;70000;51.176;-115.568;2023-06-19T07:02:49;3.20;;;1.10;;
69596;SDS011;70000;51.176;-115.568;2023-06-19T07:05:19;4.10;;;1.50;;
69596;SDS011;70000;51.176;-115.568;2023-06-19T07:07:49;3.80;;;1.30;;
69596;SDS011;70000;51.176;-115.568;2023-06-19T07:10:18;4.10;;;1.30;;
69596;SDS011;70000;51.176;-115.568;2023-06-19T07:12:49;3.70;;;1.20;;
69596;SDS011;70000;51.176;-115.568;2023-06-19T07:15:19;4.30;;;1.50;;
69596;SDS011;70000;51.176;-115.568;2023-06-19T07:17:48;3.70;;;1.30;;
69596;SDS011;70000;51.176;-115.568;2023-06-19T07:20:17;4.20;;;1.50;;
69596;SDS011;70000;51.176;-115.568;2023-06-19T07:22:46;4.10;;;1.50;;
69596;SDS011;70000;51.176;-115.568;2023-06-19T07:25:16;4.30;;;1.40;;
69596;SDS011;70000;51.176;-115.568;2023-06-19T07:27:48;3.50;;;1.20;;
69596;SDS011;70000;51.176;-115.568;2023-06-19T07:30:17;3.60;;;1.20;;
69596;SDS011;70000;51.176;-115.568;2023-06-19T07:32:47;4.10;;;1.40;;
69596;SDS011;70000;51.176;-115.568;2023-06-19T07:35:21;4.00;;;1.40;;
69596;SDS011;70000;51.176;-115.568;2023-06-19T07:37:53;4.00;;;1.30;;
69596;SDS011;70000;51.176;-115.568;2023-06-19T07:40:22;3.70;;;1.20;;
69596;SDS011;70000;51.176;-115.568;2023-06-19T07:42:52;4.60;;;1.50;;
69596;SDS011;70000;51.176;-115.568;2023-06-19T07:45:21;4.40;;;1.60;;
69596;SDS011;70000;51.176;-115.568;2023-06-19T07:47:55;4.70;;;1.40;;
69596;SDS011;70000;51.176;-115.568;2023-06-19T07:50:25;4.60;;;1.50;;
69596;SDS011;70000;51.176;-115.568;2023-06-19T07:52:55;3.90;;;1.30;;
69596;SDS011;70000;51.176;-115.568;2023-06-19T07:55:27;3.80;;;1.20;;
69596;SDS011;70000;51.176;-115.568;2023-06-19T07:57:56;3.70;;;1.30;;
69596;SDS011;70000;51.176;-115.568;2023-06-19T08:00:26;4.00;;;1.30;;
69596;SDS011;70000;51.176;-115.568;2023-06-19T08:02:57;3.80;;;1.30;;
69596;SDS011;70000;51.176;-115.568;2023-06-19T08:05:26;4.20;;;1.40;;
69596;SDS011;70000;51.176;-115.568;2023-06-19T08:07:56;4.40;;;1.50;;
69596;SDS011;70000;51.176;-115.568;2023-06-19T08:10:32;4.10;;;1.40;;
69596;SDS011;70000;51.176;-115.568;2023-06-19T08:13:01;3.80;;;1.30;;
69596;SDS011;70000;51.176;-115.568;2023-06-19T08:15:30;3.80;;;1.30;;
69596;SDS011;70000;51.176;-115.568;2023-06-19T08:17:59;3.30;;;1.10;;
69596;SDS011;70000;51.176;-115.568;2023-06-19T08:20:28;4.30;;;1.50;;
69596;SDS011;70000;51.176;-115.568;2023-06-19T08:22:59;4.40;;;1.60;;
69596;SDS011;70000;51.176;-115.568;2023-06-19T08:25:32;4.30;;;1.50;;
69596;SDS011;70000;51.176;-115.568;2023-06-19T08:28:04;4.00;;;1.40;;
69596;SDS011;70000;51.176;-115.568;2023-06-19T08:30:34;4.00;;;1.40;;
69596;SDS011;70000;51.176;-115.568;2023-06-19T08:33:03;4.10;;;1.40;;
69596;SDS011;70000;51.176;-115.568;2023-06-19T08:35:32;4.10;;;1.50;;
69596;SDS011;70000;51.176;-115.568;2023-06-19T08:38:01;4.20;;;1.50;;
69596;SDS011;70000;51.176;-115.568;2023-06-19T08:40:30;3.90;;;1.30;;
69596;SDS011;70000;51.176;-115.568;2023-06-19T08:42:59;3.70;;;1.20;;
69596;SDS011;70000;51.176;-115.568;2023-06-19T08:45:28;4.30;;;1.50;;
69596;SDS011;70000;51.176;-115.568;2023-06-19T08:48:00;3.90;;;1.40;;
69596;SDS011;70000;51.176;-115.568;2023-06-19T08:50:33;4.00;;;1.30;;
69596;SDS011;70000;51.176;-115.568;2023-06-19T08:53:02;3.60;;;1.20;;
69596;SDS011;70000;51.176;-115.568;2023-06-19T08:55:36;3.80;;;1.30;;
69596;SDS011;70000;51.176;-115.568;2023-06-19T08:58:05;4.10;;;1.50;;
69596;SDS011;70000;51.176;-115.568;2023-06-19T09:00:34;4.20;;;1.50;;
69596;SDS011;70000;51.176;-115.568;2023-06-19T09:03:06;3.60;;;1.10;;
69596;SDS011;70000;51.176;-115.568;2023-06-19T09:05:44;4.00;;;1.50;;
69596;SDS011;70000;51.176;-115.568;2023-06-19T09:08:20;3.60;;;1.20;;
69596;SDS011;70000;51.176;-115.568;2023-06-19T09:11:02;4.20;;;1.40;;
69596;SDS011;70000;51.176;-115.568;2023-06-19T09:13:36;5.00;;;1.50;;
69596;SDS011;70000;51.176;-115.568;2023-06-19T09:16:07;5.50;;;1.00;;
69596;SDS011;70000;51.176;-115.568;2023-06-19T09:18:47;3.50;;;1.10;;
69596;SDS011;70000;51.176;-115.568;2023-06-19T09:21:20;3.90;;;1.20;;
69596;SDS011;70000;51.176;-115.568;2023-06-19T09:23:53;4.30;;;1.20;;
69596;SDS011;70000;51.176;-115.568;2023-06-19T09:26:22;4.10;;;1.40;;
69596;SDS011;70000;51.176;-115.568;2023-06-19T09:28:52;3.30;;;1.00;;
69596;SDS011;70000;51.176;-115.568;2023-06-19T09:31:32;3.70;;;1.20;;
69596;SDS011;70000;51.176;-115.568;2023-06-19T09:34:02;3.70;;;1.10;;
69596;SDS011;70000;51.176;-115.568;2023-06-19T09:36:32;3.60;;;1.10;;
69596;SDS011;70000;51.176;-115.568;2023-06-19T09:39:04;4.20;;;1.40;;
69596;SDS011;70000;51.176;-115.568;2023-06-19T09:41:37;3.70;;;1.20;;
69596;SDS011;70000;51.176;-115.568;2023-06-19T09:44:21;3.40;;;1.00;;
69596;SDS011;70000;51.176;-115.568;2023-06-19T09:46:52;3.70;;;1.10;;
69596;SDS011;70000;51.176;-115.568;2023-06-19T09:49:26;3.90;;;1.30;;
69596;SDS011;70000;51.176;-115.568;2023-06-19T09:51:58;3.60;;;1.10;;
69596;SDS011;70000;51.176;-115.568;2023-06-19T09:54:27;3.50;;;1.10;;
69596;SDS011;70000;51.176;-115.568;2023-06-19T09:56:58;3.80;;;1.30;;
69596;SDS011;70000;51.176;-115.568;2023-06-19T09:59:33;3.70;;;1.20;;
69596;SDS011;70000;51.176;-115.568;2023-06-19T10:02:03;4.00;;;1.20;;
69596;SDS011;70000;51.176;-115.568;2023-06-19T10:04:43;3.70;;;1.20;;
69596;SDS011;70000;51.176;-115.568;2023-06-19T10:07:21;3.90;;;1.20;;
69596;SDS011;70000;51.176;-115.568;2023-06-19T10:09:56;3.70;;;1.20;;
69596;SDS011;70000;51.176;-115.568;2023-06-19T10:12:45;3.40;;;1.00;;
69596;SDS011;70000;51.176;-115.568;2023-06-19T10:15:20;4.00;;;1.40;;
69596;SDS011;70000;51.176;-115.568;2023-06-19T10:18:16;3.80;;;1.20;;
69596;SDS011;70000;51.176;-115.568;2023-06-19T10:20:46;3.30;;;1.00;;
69596;SDS011;70000;51.176;-115.568;2023-06-19T10:23:21;4.10;;;1.30;;
69596;SDS011;70000;51.176;-115.568;2023-06-19T10:25:59;3.20;;;0.90;;
69596;SDS011;70000;51.176;-115.568;2023-06-19T10:28:32;3.60;;;1.10;;
69596;SDS011;70000;51.176;-115.568;2023-06-19T10:31:05;3.50;;;1.10;;
69596;SDS011;70000;51.176;-115.568;2023-06-19T10:33:37;3.10;;;0.90;;
69596;SDS011;70000;51.176;-115.568;2023-06-19T10:36:22;3.50;;;1.10;;
69596;SDS011;70000;51.176;-115.568;2023-06-19T10:38:58;3.20;;;1.00;;
69596;SDS011;70000;51.176;-115.568;2023-06-19T10:41:27;3.80;;;1.20;;
69596;SDS011;70000;51.176;-115.568;2023-06-19T10:44:04;3.40;;;1.10;;
69596;SDS011;70000;51.176;-115.568;2023-06-19T10:46:42;3.80;;;1.30;;
69596;SDS011;70000;51.176;-115.568;2023-06-19T10:49:11;4.00;;;1.40;;
69596;SDS011;70000;51.176;-115.568;2023-06-19T10:51:42;3.00;;;0.90;;
69596;SDS011;70000;51.176;-115.568;2023-06-19T10:54:14;3.60;;;1.20;;
69596;SDS011;70000;51.176;-115.568;2023-06-19T10:56:45;3.80;;;1.30;;
69596;SDS011;70000;51.176;-115.568;2023-06-19T10:59:17;3.90;;;1.30;;
69596;SDS011;70000;51.176;-115.568;2023-06-19T11:01:49;4.00;;;1.30;;
69596;SDS011;70000;51.176;-115.568;2023-06-19T11:04:18;4.00;;;1.30;;
69596;SDS011;70000;51.176;-115.568;2023-06-19T11:06:47;4.10;;;1.40;;
69596;SDS011;70000;51.176;-115.568;2023-06-19T11:09:17;3.80;;;1.20;;
69596;SDS011;70000;51.176;-115.568;2023-06-19T11:11:50;3.40;;;1.10;;
69596;SDS011;70000;51.176;-115.568;2023-06-19T11:14:20;3.20;;;1.00;;
69596;SDS011;70000;51.176;-115.568;2023-06-19T11:16:49;3.60;;;1.10;;
69596;SDS011;70000;51.176;-115.568;2023-06-19T11:19:30;4.00;;;1.30;;
69596;SDS011;70000;51.176;-115.568;2023-06-19T11:22:03;3.60;;;1.10;;
69596;SDS011;70000;51.176;-115.568;2023-06-19T11:24:32;3.60;;;1.10;;
69596;SDS011;70000;51.176;-115.568;2023-06-19T11:27:02;3.50;;;1.10;;
69596;SDS011;70000;51.176;-115.568;2023-06-19T11:29:34;3.80;;;1.20;;
69596;SDS011;70000;51.176;-115.568;2023-06-19T11:32:11;3.80;;;1.20;;
69596;SDS011;70000;51.176;-115.568;2023-06-19T11:35:05;4.00;;;1.40;;
69596;SDS011;70000;51.176;-115.568;2023-06-19T11:37:35;3.40;;;1.10;;
69596;SDS011;70000;51.176;-115.568;2023-06-19T11:40:10;4.00;;;1.30;;
69596;SDS011;70000;51.176;-115.568;2023-06-19T11:42:52;3.60;;;1.20;;
69596;SDS011;70000;51.176;-115.568;2023-06-19T11:45:22;3.70;;;1.20;;
69596;SDS011;70000;51.176;-115.568;2023-06-19T11:47:51;3.80;;;1.30;;
69596;SDS011;70000;51.176;-115.568;2023-06-19T11:50:27;3.80;;;1.20;;
69596;SDS011;70000;51.176;-115.568;2023-06-19T11:52:59;3.40;;;1.00;;
69596;SDS011;70000;51.176;-115.568;2023-06-19T11:55:31;3.30;;;1.00;;
69596;SDS011;70000;51.176;-115.568;2023-06-19T11:58:00;4.00;;;1.30;;
69596;SDS011;70000;51.176;-115.568;2023-06-19T12:00:29;3.60;;;1.10;;
69596;SDS011;70000;51.176;-115.568;2023-06-19T12:02:58;3.60;;;1.10;;
69596;SDS011;70000;51.176;-115.568;2023-06-19T12:05:28;3.90;;;1.30;;
69596;SDS011;70000;51.176;-115.568;2023-06-19T12:07:57;3.80;;;1.30;;
69596;SDS011;70000;51.176;-115.568;2023-06-19T12:10:26;3.70;;;1.20;;
69596;SDS011;70000;51.176;-115.568;2023-06-19T12:12:55;3.90;;;1.30;;
69596;SDS011;70000;51.176;-115.568;2023-06-19T12:15:25;3.70;;;1.30;;
69596;SDS011;70000;51.176;-115.568;2023-06-19T12:17:53;3.70;;;1.20;;
69596;SDS011;70000;51.176;-115.568;2023-06-19T12:20:26;3.60;;;1.10;;
69596;SDS011;70000;51.176;-115.568;2023-06-19T12:22:55;4.10;;;1.40;;
69596;SDS011;70000;51.176;-115.568;2023-06-19T12:25:24;3.90;;;1.20;;
69596;SDS011;70000;51.176;-115.568;2023-06-19T12:27:53;3.20;;;0.90;;
69596;SDS011;70000;51.176;-115.568;2023-06-19T12:30:22;3.90;;;1.20;;
69596;SDS011;70000;51.176;-115.568;2023-06-19T12:32:52;3.80;;;1.20;;
69596;SDS011;70000;51.176;-115.568;2023-06-19T12:35:21;4.00;;;1.30;;
69596;SDS011;70000;51.176;-115.568;2023-06-19T12:37:51;4.10;;;1.40;;
69596;SDS011;70000;51.176;-115.568;2023-06-19T12:40:23;3.90;;;1.30;;
69596;SDS011;70000;51.176;-115.568;2023-06-19T12:42:53;3.90;;;1.30;;
69596;SDS011;70000;51.176;-115.568;2023-06-19T12:45:22;4.30;;;1.30;;
69596;SDS011;70000;51.176;-115.568;2023-06-19T12:47:51;4.00;;;1.30;;
69596;SDS011;70000;51.176;-115.568;2023-06-19T12:50:22;3.30;;;1.00;;
69596;SDS011;70000;51.176;-115.568;2023-06-19T12:52:51;3.80;;;1.20;;
69596;SDS011;70000;51.176;-115.568;2023-06-19T12:55:20;3.60;;;1.10;;
69596;SDS011;70000;51.176;-115.568;2023-06-19T12:57:49;3.70;;;1.10;;
69596;SDS011;70000;51.176;-115.568;2023-06-19T13:00:18;3.90;;;1.20;;
69596;SDS011;70000;51.176;-115.568;2023-06-19T13:02:48;4.20;;;1.40;;
69596;SDS011;70000;51.176;-115.568;2023-06-19T13:05:17;4.10;;;1.30;;
69596;SDS011;70000;51.176;-115.568;2023-06-19T13:07:46;3.70;;;1.10;;
69596;SDS011;70000;51.176;-115.568;2023-06-19T13:10:15;3.50;;;1.10;;
69596;SDS011;70000;51.176;-115.568;2023-06-19T13:12:47;3.80;;;1.20;;
69596;SDS011;70000;51.176;-115.568;2023-06-19T13:15:16;3.70;;;1.10;;
69596;SDS011;70000;51.176;-115.568;2023-06-19T13:17:48;3.90;;;1.10;;
69596;SDS011;70000;51.176;-115.568;2023-06-19T13:20:17;4.00;;;1.30;;
69596;SDS011;70000;51.176;-115.568;2023-06-19T13:22:46;4.50;;;1.40;;
69596;SDS011;70000;51.176;-115.568;2023-06-19T13:25:15;4.50;;;1.30;;
69596;SDS011;70000;51.176;-115.568;2023-06-19T13:27:44;3.70;;;1.20;;
69596;SDS011;70000;51.176;-115.568;2023-06-19T13:30:14;4.10;;;1.40;;
69596;SDS011;70000;51.176;-115.568;2023-06-19T13:32:44;4.10;;;1.30;;
69596;SDS011;70000;51.176;-115.568;2023-06-19T13:35:13;3.80;;;1.20;;
69596;SDS011;70000;51.176;-115.568;2023-06-19T13:37:42;3.70;;;1.20;;
69596;SDS011;70000;51.176;-115.568;2023-06-19T13:40:11;4.00;;;1.20;;
69596;SDS011;70000;51.176;-115.568;2023-06-19T13:42:41;3.60;;;1.20;;
69596;SDS011;70000;51.176;-115.568;2023-06-19T13:45:10;4.00;;;1.20;;
69596;SDS011;70000;51.176;-115.568;2023-06-19T13:47:39;3.60;;;1.10;;
69596;SDS011;70000;51.176;-115.568;2023-06-19T13:50:08;4.00;;;1.40;;
69596;SDS011;70000;51.176;-115.568;2023-06-19T13:52:37;4.00;;;1.40;;
69596;SDS011;70000;51.176;-115.568;2023-06-19T13:55:07;3.60;;;1.20;;
69596;SDS011;70000;51.176;-115.568;2023-06-19T13:57:36;3.50;;;1.10;;
69596;SDS011;70000;51.176;-115.568;2023-06-19T14:00:10;3.00;;;0.90;;
69596;SDS011;70000;51.176;-115.568;2023-06-19T14:02:39;3.60;;;1.20;;
69596;SDS011;70000;51.176;-115.568;2023-06-19T14:05:09;3.60;;;1.10;;
69596;SDS011;70000;51.176;-115.568;2023-06-19T14:07:40;3.70;;;1.20;;
69596;SDS011;70000;51.176;-115.568;2023-06-19T14:10:10;3.90;;;1.40;;
69596;SDS011;70000;51.176;-115.568;2023-06-19T14:12:40;3.80;;;1.10;;
69596;SDS011;70000;51.176;-115.568;2023-06-19T14:15:09;4.30;;;1.50;;
69596;SDS011;70000;51.176;-115.568;2023-06-19T14:17:39;4.10;;;1.40;;
69596;SDS011;70000;51.176;-115.568;2023-06-19T14:20:11;4.80;;;1.30;;
69596;SDS011;70000;51.176;-115.568;2023-06-19T14:22:41;3.80;;;1.10;;
69596;SDS011;70000;51.176;-115.568;2023-06-19T14:25:10;4.00;;;1.40;;
69596;SDS011;70000;51.176;-115.568;2023-06-19T14:27:40;3.60;;;1.20;;
69596;SDS011;70000;51.176;-115.568;2023-06-19T14:30:09;4.10;;;1.30;;
69596;SDS011;70000;51.176;-115.568;2023-06-19T14:32:39;3.90;;;1.20;;